sensor_id;sensor_type;location;lat;lon;timestamp;temperature;humidity
2723;DHT22;1369;53.216;10.396;2024-02-16T00:02:00;10.90;99.90
2723;DHT22;1369;53.216;10.396;2024-02-16T00:04:26;10.90;99.90
2723;DHT22;1369;53.216;10.396;2024-02-16T00:06:53;10.90;99.90
2723;DHT22;1369;53.216;10.396;2024-02-16T00:09:19;10.90;99.90
2723;DHT22;1369;53.216;10.396;2024-02-16T00:11:45;10.80;99.90
2723;DHT22;1369;53.216;10.396;2024-02-16T00:14:10;10.70;99.90
2723;DHT22;1369;53.216;10.396;2024-02-16T00:16:36;10.70;99.90
2723;DHT22;1369;53.216;10.396;2024-02-16T00:19:02;10.60;99.90
2723;DHT22;1369;53.216;10.396;2024-02-16T00:21:28;10.60;99.90
2723;DHT22;1369;53.216;10.396;2024-02-16T00:23:54;10.60;99.90
2723;DHT22;1369;53.216;10.396;2024-02-16T00:26:20;10.50;99.90
2723;DHT22;1369;53.216;10.396;2024-02-16T00:28:46;10.60;99.90
2723;DHT22;1369;53.216;10.396;2024-02-16T00:31:12;10.70;99.90
2723;DHT22;1369;53.216;10.396;2024-02-16T00:33:38;10.70;99.90
2723;DHT22;1369;53.216;10.396;2024-02-16T00:36:03;10.80;99.90
2723;DHT22;1369;53.216;10.396;2024-02-16T00:38:29;10.90;99.90
2723;DHT22;1369;53.216;10.396;2024-02-16T00:40:54;10.90;99.90
2723;DHT22;1369;53.216;10.396;2024-02-16T00:43:20;11.00;99.90
2723;DHT22;1369;53.216;10.396;2024-02-16T00:45:46;11.00;99.90
2723;DHT22;1369;53.216;10.396;2024-02-16T00:48:12;11.00;99.90
2723;DHT22;1369;53.216;10.396;2024-02-16T00:50:38;11.00;99.90
2723;DHT22;1369;53.216;10.396;2024-02-16T00:53:03;11.00;99.90
2723;DHT22;1369;53.216;10.396;2024-02-16T00:55:29;11.00;99.90
2723;DHT22;1369;53.216;10.396;2024-02-16T00:57:56;11.10;99.90
2723;DHT22;1369;53.216;10.396;2024-02-16T01:00:21;11.10;99.90
2723;DHT22;1369;53.216;10.396;2024-02-16T01:02:49;11.00;99.90
2723;DHT22;1369;53.216;10.396;2024-02-16T01:05:14;11.00;99.90
2723;DHT22;1369;53.216;10.396;2024-02-16T01:07:43;10.90;99.90
2723;DHT22;1369;53.216;10.396;2024-02-16T01:10:09;10.90;99.90
2723;DHT22;1369;53.216;10.396;2024-02-16T01:12:35;10.90;99.90
2723;DHT22;1369;53.216;10.396;2024-02-16T01:15:00;10.80;99.90
2723;DHT22;1369;53.216;10.396;2024-02-16T01:17:26;10.80;99.90
2723;DHT22;1369;53.216;10.396;2024-02-16T01:19:52;10.80;99.90
2723;DHT22;1369;53.216;10.396;2024-02-16T01:22:17;10.80;99.90
2723;DHT22;1369;53.216;10.396;2024-02-16T01:24:44;10.80;99.90
2723;DHT22;1369;53.216;10.396;2024-02-16T01:27:09;10.80;99.90
2723;DHT22;1369;53.216;10.396;2024-02-16T01:29:36;10.80;99.90
2723;DHT22;1369;53.216;10.396;2024-02-16T01:32:02;10.90;99.90
2723;DHT22;1369;53.216;10.396;2024-02-16T01:34:28;10.90;99.90
2723;DHT22;1369;53.216;10.396;2024-02-16T01:36:56;10.90;99.90
2723;DHT22;1369;53.216;10.396;2024-02-16T01:39:21;10.90;99.90
2723;DHT22;1369;53.216;10.396;2024-02-16T01:41:47;10.90;99.90
2723;DHT22;1369;53.216;10.396;2024-02-16T01:44:13;10.90;99.90
2723;DHT22;1369;53.216;10.396;2024-02-16T01:46:42;10.90;99.90
2723;DHT22;1369;53.216;10.396;2024-02-16T01:49:08;10.80;99.90
2723;DHT22;1369;53.216;10.396;2024-02-16T01:51:35;10.80;99.90
2723;DHT22;1369;53.216;10.396;2024-02-16T01:54:01;10.70;99.90
2723;DHT22;1369;53.216;10.396;2024-02-16T01:56:28;10.60;99.90
2723;DHT22;1369;53.216;10.396;2024-02-16T01:58:54;10.60;99.90
2723;DHT22;1369;53.216;10.396;2024-02-16T02:01:20;10.60;99.90
2723;DHT22;1369;53.216;10.396;2024-02-16T02:03:45;10.50;99.90
2723;DHT22;1369;53.216;10.396;2024-02-16T02:06:11;10.50;99.90
2723;DHT22;1369;53.216;10.396;2024-02-16T02:08:37;10.40;99.90
2723;DHT22;1369;53.216;10.396;2024-02-16T02:11:02;10.30;99.90
2723;DHT22;1369;53.216;10.396;2024-02-16T02:13:28;10.20;99.90
2723;DHT22;1369;53.216;10.396;2024-02-16T02:15:55;10.20;99.90
2723;DHT22;1369;53.216;10.396;2024-02-16T02:18:21;10.10;99.90
2723;DHT22;1369;53.216;10.396;2024-02-16T02:20:47;10.10;99.90
2723;DHT22;1369;53.216;10.396;2024-02-16T02:23:12;10.00;99.90
2723;DHT22;1369;53.216;10.396;2024-02-16T02:25:38;9.90;99.90
2723;DHT22;1369;53.216;10.396;2024-02-16T02:28:05;9.90;99.90
2723;DHT22;1369;53.216;10.396;2024-02-16T02:30:31;9.80;99.90
2723;DHT22;1369;53.216;10.396;2024-02-16T02:32:57;9.80;99.90
2723;DHT22;1369;53.216;10.396;2024-02-16T02:35:23;9.90;99.90
2723;DHT22;1369;53.216;10.396;2024-02-16T02:37:48;9.90;99.90
2723;DHT22;1369;53.216;10.396;2024-02-16T02:40:14;9.80;99.90
2723;DHT22;1369;53.216;10.396;2024-02-16T02:42:40;9.80;99.90
2723;DHT22;1369;53.216;10.396;2024-02-16T02:45:06;9.80;99.90
2723;DHT22;1369;53.216;10.396;2024-02-16T02:47:32;9.90;99.90
2723;DHT22;1369;53.216;10.396;2024-02-16T02:49:58;9.90;99.90
2723;DHT22;1369;53.216;10.396;2024-02-16T02:52:23;10.00;99.90
2723;DHT22;1369;53.216;10.396;2024-02-16T02:54:49;10.00;99.90
2723;DHT22;1369;53.216;10.396;2024-02-16T02:57:14;10.10;99.90
2723;DHT22;1369;53.216;10.396;2024-02-16T02:59:40;10.20;99.90
2723;DHT22;1369;53.216;10.396;2024-02-16T03:02:05;10.20;99.90
2723;DHT22;1369;53.216;10.396;2024-02-16T03:04:31;10.20;99.90
2723;DHT22;1369;53.216;10.396;2024-02-16T03:06:57;10.30;99.90
2723;DHT22;1369;53.216;10.396;2024-02-16T03:09:22;10.30;99.90
2723;DHT22;1369;53.216;10.396;2024-02-16T03:11:48;10.30;99.90
2723;DHT22;1369;53.216;10.396;2024-02-16T03:14:16;10.30;99.90
2723;DHT22;1369;53.216;10.396;2024-02-16T03:16:42;10.30;99.90
2723;DHT22;1369;53.216;10.396;2024-02-16T03:19:08;10.30;99.90
2723;DHT22;1369;53.216;10.396;2024-02-16T03:21:34;10.30;99.90
2723;DHT22;1369;53.216;10.396;2024-02-16T03:24:01;10.30;99.90
2723;DHT22;1369;53.216;10.396;2024-02-16T03:26:27;10.40;99.90
2723;DHT22;1369;53.216;10.396;2024-02-16T03:28:52;10.40;99.90
2723;DHT22;1369;53.216;10.396;2024-02-16T03:31:24;10.40;99.90
2723;DHT22;1369;53.216;10.396;2024-02-16T03:33:51;10.40;99.90
2723;DHT22;1369;53.216;10.396;2024-02-16T03:36:18;10.40;99.90
2723;DHT22;1369;53.216;10.396;2024-02-16T03:38:45;10.40;99.90
2723;DHT22;1369;53.216;10.396;2024-02-16T03:41:24;10.40;99.90
2723;DHT22;1369;53.216;10.396;2024-02-16T03:43:50;10.40;99.90
2723;DHT22;1369;53.216;10.396;2024-02-16T03:46:16;10.40;99.90
2723;DHT22;1369;53.216;10.396;2024-02-16T03:48:42;10.40;99.90
2723;DHT22;1369;53.216;10.396;2024-02-16T03:51:10;10.40;99.90
2723;DHT22;1369;53.216;10.396;2024-02-16T03:53:35;10.40;99.90
2723;DHT22;1369;53.216;10.396;2024-02-16T03:56:01;10.40;99.90
2723;DHT22;1369;53.216;10.396;2024-02-16T03:58:27;10.40;99.90
2723;DHT22;1369;53.216;10.396;2024-02-16T04:00:52;10.40;99.90
2723;DHT22;1369;53.216;10.396;2024-02-16T04:03:18;10.40;99.90
2723;DHT22;1369;53.216;10.396;2024-02-16T04:05:44;10.40;99.90
2723;DHT22;1369;53.216;10.396;2024-02-16T04:08:10;10.40;99.90
2723;DHT22;1369;53.216;10.396;2024-02-16T04:10:36;10.40;99.90
2723;DHT22;1369;53.216;10.396;2024-02-16T04:13:02;10.40;99.90
2723;DHT22;1369;53.216;10.396;2024-02-16T04:15:28;10.40;99.90
2723;DHT22;1369;53.216;10.396;2024-02-16T04:17:54;10.40;99.90
2723;DHT22;1369;53.216;10.396;2024-02-16T04:20:20;10.30;99.90
2723;DHT22;1369;53.216;10.396;2024-02-16T04:22:46;10.30;99.90
2723;DHT22;1369;53.216;10.396;2024-02-16T04:25:12;10.30;99.90
2723;DHT22;1369;53.216;10.396;2024-02-16T04:27:38;10.40;99.90
2723;DHT22;1369;53.216;10.396;2024-02-16T04:30:04;10.40;99.90
2723;DHT22;1369;53.216;10.396;2024-02-16T04:32:30;10.40;99.90
2723;DHT22;1369;53.216;10.396;2024-02-16T04:34:56;10.40;99.90
2723;DHT22;1369;53.216;10.396;2024-02-16T04:37:22;10.40;99.90
2723;DHT22;1369;53.216;10.396;2024-02-16T04:39:49;10.40;99.90
2723;DHT22;1369;53.216;10.396;2024-02-16T04:42:14;10.40;99.90
2723;DHT22;1369;53.216;10.396;2024-02-16T04:44:40;10.30;99.90
2723;DHT22;1369;53.216;10.396;2024-02-16T04:47:06;10.30;99.90
2723;DHT22;1369;53.216;10.396;2024-02-16T04:49:32;10.30;99.90
2723;DHT22;1369;53.216;10.396;2024-02-16T04:51:58;10.20;99.90
2723;DHT22;1369;53.216;10.396;2024-02-16T04:54:23;10.20;99.90
2723;DHT22;1369;53.216;10.396;2024-02-16T04:56:50;10.20;99.90
2723;DHT22;1369;53.216;10.396;2024-02-16T04:59:18;10.20;99.90
2723;DHT22;1369;53.216;10.396;2024-02-16T05:01:44;10.10;99.90
2723;DHT22;1369;53.216;10.396;2024-02-16T05:04:13;10.10;99.90
2723;DHT22;1369;53.216;10.396;2024-02-16T05:06:42;10.10;99.90
2723;DHT22;1369;53.216;10.396;2024-02-16T05:09:08;10.10;99.90
2723;DHT22;1369;53.216;10.396;2024-02-16T05:11:34;10.10;99.90
2723;DHT22;1369;53.216;10.396;2024-02-16T05:14:00;10.00;99.90
2723;DHT22;1369;53.216;10.396;2024-02-16T05:16:27;10.10;99.90
2723;DHT22;1369;53.216;10.396;2024-02-16T05:18:53;10.10;99.90
2723;DHT22;1369;53.216;10.396;2024-02-16T05:21:18;10.10;99.90
2723;DHT22;1369;53.216;10.396;2024-02-16T05:23:44;10.10;99.90
2723;DHT22;1369;53.216;10.396;2024-02-16T05:26:09;10.10;99.90
2723;DHT22;1369;53.216;10.396;2024-02-16T05:28:35;10.10;99.90
2723;DHT22;1369;53.216;10.396;2024-02-16T05:31:16;10.20;99.90
2723;DHT22;1369;53.216;10.396;2024-02-16T05:33:43;10.20;99.90
2723;DHT22;1369;53.216;10.396;2024-02-16T05:36:11;10.10;99.90
2723;DHT22;1369;53.216;10.396;2024-02-16T05:38:37;10.10;99.90
2723;DHT22;1369;53.216;10.396;2024-02-16T05:41:10;10.10;99.90
2723;DHT22;1369;53.216;10.396;2024-02-16T05:43:37;10.10;99.90
2723;DHT22;1369;53.216;10.396;2024-02-16T05:46:04;10.10;99.90
2723;DHT22;1369;53.216;10.396;2024-02-16T05:48:33;10.10;99.90
2723;DHT22;1369;53.216;10.396;2024-02-16T05:51:01;10.00;99.90
2723;DHT22;1369;53.216;10.396;2024-02-16T05:53:27;10.00;99.90
2723;DHT22;1369;53.216;10.396;2024-02-16T05:55:55;10.00;99.90
2723;DHT22;1369;53.216;10.396;2024-02-16T05:58:21;10.00;99.90
2723;DHT22;1369;53.216;10.396;2024-02-16T06:00:48;9.90;99.90
2723;DHT22;1369;53.216;10.396;2024-02-16T06:03:14;9.90;99.90
2723;DHT22;1369;53.216;10.396;2024-02-16T06:05:40;9.90;99.90
2723;DHT22;1369;53.216;10.396;2024-02-16T06:08:08;9.90;99.90
2723;DHT22;1369;53.216;10.396;2024-02-16T06:10:35;9.90;99.90
2723;DHT22;1369;53.216;10.396;2024-02-16T06:13:00;9.90;99.90
2723;DHT22;1369;53.216;10.396;2024-02-16T06:15:26;9.90;99.90
2723;DHT22;1369;53.216;10.396;2024-02-16T06:17:52;9.90;99.90
2723;DHT22;1369;53.216;10.396;2024-02-16T06:20:18;9.80;99.90
2723;DHT22;1369;53.216;10.396;2024-02-16T06:22:44;9.80;99.90
2723;DHT22;1369;53.216;10.396;2024-02-16T06:25:09;9.80;99.90
2723;DHT22;1369;53.216;10.396;2024-02-16T06:27:35;9.80;99.90
2723;DHT22;1369;53.216;10.396;2024-02-16T06:30:04;9.80;99.90
2723;DHT22;1369;53.216;10.396;2024-02-16T06:32:31;9.80;99.90
2723;DHT22;1369;53.216;10.396;2024-02-16T06:34:57;9.80;99.90
2723;DHT22;1369;53.216;10.396;2024-02-16T06:37:23;9.80;99.90
2723;DHT22;1369;53.216;10.396;2024-02-16T06:39:48;9.70;99.90
2723;DHT22;1369;53.216;10.396;2024-02-16T06:42:15;9.70;99.90
2723;DHT22;1369;53.216;10.396;2024-02-16T06:44:41;9.70;99.90
2723;DHT22;1369;53.216;10.396;2024-02-16T06:47:07;9.70;99.90
2723;DHT22;1369;53.216;10.396;2024-02-16T06:49:32;9.70;99.90
2723;DHT22;1369;53.216;10.396;2024-02-16T06:51:59;9.70;99.90
2723;DHT22;1369;53.216;10.396;2024-02-16T06:54:25;9.70;99.90
2723;DHT22;1369;53.216;10.396;2024-02-16T06:56:51;9.60;99.90
2723;DHT22;1369;53.216;10.396;2024-02-16T06:59:17;9.60;99.90
2723;DHT22;1369;53.216;10.396;2024-02-16T07:01:43;9.60;99.90
2723;DHT22;1369;53.216;10.396;2024-02-16T07:04:08;9.70;99.90
2723;DHT22;1369;53.216;10.396;2024-02-16T07:06:35;9.70;99.90
2723;DHT22;1369;53.216;10.396;2024-02-16T07:09:01;9.70;99.90
2723;DHT22;1369;53.216;10.396;2024-02-16T07:11:28;9.70;99.90
2723;DHT22;1369;53.216;10.396;2024-02-16T07:13:54;9.60;99.90
2723;DHT22;1369;53.216;10.396;2024-02-16T07:16:20;9.60;99.90
2723;DHT22;1369;53.216;10.396;2024-02-16T07:18:45;9.60;99.90
2723;DHT22;1369;53.216;10.396;2024-02-16T07:21:11;9.50;99.90
2723;DHT22;1369;53.216;10.396;2024-02-16T07:23:37;9.60;99.90
2723;DHT22;1369;53.216;10.396;2024-02-16T07:26:04;9.60;99.90
2723;DHT22;1369;53.216;10.396;2024-02-16T07:28:29;9.60;99.90
2723;DHT22;1369;53.216;10.396;2024-02-16T07:30:56;9.70;99.90
2723;DHT22;1369;53.216;10.396;2024-02-16T07:33:22;9.70;99.90
2723;DHT22;1369;53.216;10.396;2024-02-16T07:35:50;9.70;99.90
2723;DHT22;1369;53.216;10.396;2024-02-16T07:38:17;9.70;99.90
2723;DHT22;1369;53.216;10.396;2024-02-16T07:40:43;9.70;99.90
2723;DHT22;1369;53.216;10.396;2024-02-16T07:43:11;9.70;99.90
2723;DHT22;1369;53.216;10.396;2024-02-16T07:45:37;9.70;99.90
2723;DHT22;1369;53.216;10.396;2024-02-16T07:48:02;9.70;99.90
2723;DHT22;1369;53.216;10.396;2024-02-16T07:50:30;9.80;99.90
2723;DHT22;1369;53.216;10.396;2024-02-16T07:52:56;9.80;99.90
2723;DHT22;1369;53.216;10.396;2024-02-16T07:55:22;9.90;99.90
2723;DHT22;1369;53.216;10.396;2024-02-16T07:57:50;10.00;99.90
2723;DHT22;1369;53.216;10.396;2024-02-16T08:00:15;10.20;99.90
2723;DHT22;1369;53.216;10.396;2024-02-16T08:02:42;10.30;99.90
2723;DHT22;1369;53.216;10.396;2024-02-16T08:05:11;10.50;99.90
2723;DHT22;1369;53.216;10.396;2024-02-16T08:07:38;10.70;99.90
2723;DHT22;1369;53.216;10.396;2024-02-16T08:10:04;10.90;99.90
2723;DHT22;1369;53.216;10.396;2024-02-16T08:12:30;11.10;99.90
2723;DHT22;1369;53.216;10.396;2024-02-16T08:14:57;11.30;99.90
2723;DHT22;1369;53.216;10.396;2024-02-16T08:17:23;11.60;99.90
2723;DHT22;1369;53.216;10.396;2024-02-16T08:19:53;11.70;99.90
2723;DHT22;1369;53.216;10.396;2024-02-16T08:22:19;11.70;99.90
2723;DHT22;1369;53.216;10.396;2024-02-16T08:24:45;11.70;99.90
2723;DHT22;1369;53.216;10.396;2024-02-16T08:27:12;11.70;99.90
2723;DHT22;1369;53.216;10.396;2024-02-16T08:29:44;11.70;99.90
2723;DHT22;1369;53.216;10.396;2024-02-16T08:32:11;11.80;99.90
2723;DHT22;1369;53.216;10.396;2024-02-16T08:34:37;11.90;99.90
2723;DHT22;1369;53.216;10.396;2024-02-16T08:37:18;12.00;99.90
2723;DHT22;1369;53.216;10.396;2024-02-16T08:39:44;12.20;99.90
2723;DHT22;1369;53.216;10.396;2024-02-16T08:42:14;12.40;99.90
2723;DHT22;1369;53.216;10.396;2024-02-16T08:44:40;12.70;99.90
2723;DHT22;1369;53.216;10.396;2024-02-16T08:47:18;12.70;99.90
2723;DHT22;1369;53.216;10.396;2024-02-16T08:49:44;12.90;99.90
2723;DHT22;1369;53.216;10.396;2024-02-16T08:52:22;12.90;99.90
2723;DHT22;1369;53.216;10.396;2024-02-16T08:54:47;12.90;99.90
2723;DHT22;1369;53.216;10.396;2024-02-16T08:57:21;12.90;99.90
2723;DHT22;1369;53.216;10.396;2024-02-16T08:59:47;13.10;99.90
2723;DHT22;1369;53.216;10.396;2024-02-16T09:02:14;13.20;99.90
2723;DHT22;1369;53.216;10.396;2024-02-16T09:04:47;13.30;99.90
2723;DHT22;1369;53.216;10.396;2024-02-16T09:07:13;13.40;99.90
2723;DHT22;1369;53.216;10.396;2024-02-16T09:09:38;13.50;99.90
2723;DHT22;1369;53.216;10.396;2024-02-16T09:12:05;13.50;99.90
2723;DHT22;1369;53.216;10.396;2024-02-16T09:14:41;13.50;99.90
2723;DHT22;1369;53.216;10.396;2024-02-16T09:17:06;13.50;99.90
2723;DHT22;1369;53.216;10.396;2024-02-16T09:19:32;13.50;99.90
2723;DHT22;1369;53.216;10.396;2024-02-16T09:21:59;13.50;99.90
2723;DHT22;1369;53.216;10.396;2024-02-16T09:24:27;13.50;99.90
2723;DHT22;1369;53.216;10.396;2024-02-16T09:26:55;13.60;99.90
2723;DHT22;1369;53.216;10.396;2024-02-16T09:29:23;13.70;99.90
2723;DHT22;1369;53.216;10.396;2024-02-16T09:31:52;13.70;99.90
2723;DHT22;1369;53.216;10.396;2024-02-16T09:34:25;13.90;99.90
2723;DHT22;1369;53.216;10.396;2024-02-16T09:36:51;14.00;99.90
2723;DHT22;1369;53.216;10.396;2024-02-16T09:39:24;14.10;99.90
2723;DHT22;1369;53.216;10.396;2024-02-16T09:41:52;14.20;99.90
2723;DHT22;1369;53.216;10.396;2024-02-16T09:44:32;14.20;99.90
2723;DHT22;1369;53.216;10.396;2024-02-16T09:47:01;14.20;99.90
2723;DHT22;1369;53.216;10.396;2024-02-16T09:49:29;14.20;99.90
2723;DHT22;1369;53.216;10.396;2024-02-16T09:52:00;14.30;99.90
2723;DHT22;1369;53.216;10.396;2024-02-16T09:54:27;14.30;99.90
2723;DHT22;1369;53.216;10.396;2024-02-16T09:56:53;14.30;99.90
2723;DHT22;1369;53.216;10.396;2024-02-16T09:59:21;14.40;99.90
2723;DHT22;1369;53.216;10.396;2024-02-16T10:01:47;14.40;99.90
2723;DHT22;1369;53.216;10.396;2024-02-16T10:04:13;14.40;99.90
2723;DHT22;1369;53.216;10.396;2024-02-16T10:06:48;14.40;99.90
2723;DHT22;1369;53.216;10.396;2024-02-16T10:09:25;14.40;99.90
2723;DHT22;1369;53.216;10.396;2024-02-16T10:11:51;14.50;99.90
2723;DHT22;1369;53.216;10.396;2024-02-16T10:14:17;14.60;99.90
2723;DHT22;1369;53.216;10.396;2024-02-16T10:16:46;14.60;99.90
2723;DHT22;1369;53.216;10.396;2024-02-16T10:19:12;14.70;99.90
2723;DHT22;1369;53.216;10.396;2024-02-16T10:21:38;14.70;99.90
2723;DHT22;1369;53.216;10.396;2024-02-16T10:24:09;14.70;99.90
2723;DHT22;1369;53.216;10.396;2024-02-16T10:26:36;14.70;99.90
2723;DHT22;1369;53.216;10.396;2024-02-16T10:29:04;14.70;99.90
2723;DHT22;1369;53.216;10.396;2024-02-16T10:31:31;14.70;99.90
2723;DHT22;1369;53.216;10.396;2024-02-16T10:34:02;14.80;99.90
2723;DHT22;1369;53.216;10.396;2024-02-16T10:36:32;15.00;99.90
2723;DHT22;1369;53.216;10.396;2024-02-16T10:38:59;15.10;99.90
2723;DHT22;1369;53.216;10.396;2024-02-16T10:41:28;15.10;99.90
2723;DHT22;1369;53.216;10.396;2024-02-16T10:43:55;15.20;99.90
2723;DHT22;1369;53.216;10.396;2024-02-16T10:46:21;15.30;99.90
2723;DHT22;1369;53.216;10.396;2024-02-16T10:48:47;15.40;99.90
2723;DHT22;1369;53.216;10.396;2024-02-16T10:51:15;15.50;99.90
2723;DHT22;1369;53.216;10.396;2024-02-16T10:53:43;15.70;99.90
2723;DHT22;1369;53.216;10.396;2024-02-16T10:56:09;15.70;99.90
2723;DHT22;1369;53.216;10.396;2024-02-16T10:58:36;15.80;99.90
2723;DHT22;1369;53.216;10.396;2024-02-16T11:01:09;15.90;99.90
2723;DHT22;1369;53.216;10.396;2024-02-16T11:03:39;15.90;99.90
2723;DHT22;1369;53.216;10.396;2024-02-16T11:06:15;15.90;99.90
2723;DHT22;1369;53.216;10.396;2024-02-16T11:08:42;15.90;99.90
2723;DHT22;1369;53.216;10.396;2024-02-16T11:11:08;15.80;99.90
2723;DHT22;1369;53.216;10.396;2024-02-16T11:13:37;15.70;99.90
2723;DHT22;1369;53.216;10.396;2024-02-16T11:16:07;15.70;99.90
2723;DHT22;1369;53.216;10.396;2024-02-16T11:18:37;15.70;99.90
2723;DHT22;1369;53.216;10.396;2024-02-16T11:21:04;15.80;99.90
2723;DHT22;1369;53.216;10.396;2024-02-16T11:23:34;15.80;99.90
2723;DHT22;1369;53.216;10.396;2024-02-16T11:26:04;15.90;99.90
2723;DHT22;1369;53.216;10.396;2024-02-16T11:28:33;15.90;99.90
2723;DHT22;1369;53.216;10.396;2024-02-16T11:31:00;15.90;99.90
2723;DHT22;1369;53.216;10.396;2024-02-16T11:33:26;15.90;99.90
2723;DHT22;1369;53.216;10.396;2024-02-16T11:35:57;15.90;99.90
2723;DHT22;1369;53.216;10.396;2024-02-16T11:38:24;15.90;99.90
2723;DHT22;1369;53.216;10.396;2024-02-16T11:43:21;15.80;99.90
2723;DHT22;1369;53.216;10.396;2024-02-16T11:45:47;15.80;99.90
2723;DHT22;1369;53.216;10.396;2024-02-16T11:48:13;15.70;99.90
2723;DHT22;1369;53.216;10.396;2024-02-16T11:50:44;15.70;99.90
2723;DHT22;1369;53.216;10.396;2024-02-16T11:53:09;15.80;99.90
2723;DHT22;1369;53.216;10.396;2024-02-16T11:55:35;15.90;99.90
2723;DHT22;1369;53.216;10.396;2024-02-16T11:58:02;15.90;99.90
2723;DHT22;1369;53.216;10.396;2024-02-16T12:00:28;15.90;99.90
2723;DHT22;1369;53.216;10.396;2024-02-16T12:03:00;16.00;99.90
2723;DHT22;1369;53.216;10.396;2024-02-16T12:05:26;16.00;99.90
2723;DHT22;1369;53.216;10.396;2024-02-16T12:07:52;16.10;99.90
2723;DHT22;1369;53.216;10.396;2024-02-16T12:10:17;16.20;99.90
2723;DHT22;1369;53.216;10.396;2024-02-16T12:12:43;16.30;99.90
2723;DHT22;1369;53.216;10.396;2024-02-16T12:15:10;16.30;99.90
2723;DHT22;1369;53.216;10.396;2024-02-16T12:17:37;16.40;99.90
2723;DHT22;1369;53.216;10.396;2024-02-16T12:20:02;16.30;99.90
2723;DHT22;1369;53.216;10.396;2024-02-16T12:22:28;16.30;99.90
2723;DHT22;1369;53.216;10.396;2024-02-16T12:24:54;16.30;99.90
2723;DHT22;1369;53.216;10.396;2024-02-16T12:27:19;16.40;99.90
2723;DHT22;1369;53.216;10.396;2024-02-16T12:29:45;16.50;99.90
2723;DHT22;1369;53.216;10.396;2024-02-16T12:32:10;16.60;99.90
2723;DHT22;1369;53.216;10.396;2024-02-16T12:34:36;16.60;99.90
2723;DHT22;1369;53.216;10.396;2024-02-16T12:37:05;16.70;99.90
2723;DHT22;1369;53.216;10.396;2024-02-16T12:39:37;16.70;99.90
2723;DHT22;1369;53.216;10.396;2024-02-16T12:42:03;16.70;99.90
2723;DHT22;1369;53.216;10.396;2024-02-16T12:44:29;16.70;99.90
2723;DHT22;1369;53.216;10.396;2024-02-16T12:46:56;16.70;99.90
2723;DHT22;1369;53.216;10.396;2024-02-16T12:49:21;16.60;99.90
2723;DHT22;1369;53.216;10.396;2024-02-16T12:51:51;16.60;99.90
2723;DHT22;1369;53.216;10.396;2024-02-16T12:54:17;16.60;99.90
2723;DHT22;1369;53.216;10.396;2024-02-16T12:56:48;16.60;99.90
2723;DHT22;1369;53.216;10.396;2024-02-16T12:59:14;16.60;99.90
2723;DHT22;1369;53.216;10.396;2024-02-16T13:01:40;16.50;99.90
2723;DHT22;1369;53.216;10.396;2024-02-16T13:04:07;16.50;99.90
2723;DHT22;1369;53.216;10.396;2024-02-16T13:06:32;16.50;99.90
2723;DHT22;1369;53.216;10.396;2024-02-16T13:08:58;16.50;99.90
2723;DHT22;1369;53.216;10.396;2024-02-16T13:11:24;16.50;99.90
2723;DHT22;1369;53.216;10.396;2024-02-16T13:13:50;16.40;99.90
2723;DHT22;1369;53.216;10.396;2024-02-16T13:16:17;16.40;99.90
2723;DHT22;1369;53.216;10.396;2024-02-16T13:18:43;16.40;99.90
2723;DHT22;1369;53.216;10.396;2024-02-16T13:21:09;16.40;99.90
2723;DHT22;1369;53.216;10.396;2024-02-16T13:23:35;16.30;99.90
2723;DHT22;1369;53.216;10.396;2024-02-16T13:26:01;16.30;99.90
2723;DHT22;1369;53.216;10.396;2024-02-16T13:28:27;16.30;99.90
2723;DHT22;1369;53.216;10.396;2024-02-16T13:30:52;16.20;99.90
2723;DHT22;1369;53.216;10.396;2024-02-16T13:33:18;16.20;99.90
2723;DHT22;1369;53.216;10.396;2024-02-16T13:35:44;16.20;99.90
2723;DHT22;1369;53.216;10.396;2024-02-16T13:38:09;16.20;99.90
2723;DHT22;1369;53.216;10.396;2024-02-16T13:40:35;16.20;99.90
2723;DHT22;1369;53.216;10.396;2024-02-16T13:43:01;16.20;99.90
2723;DHT22;1369;53.216;10.396;2024-02-16T13:48:13;16.20;99.90
2723;DHT22;1369;53.216;10.396;2024-02-16T13:50:38;16.20;99.90
2723;DHT22;1369;53.216;10.396;2024-02-16T13:53:04;16.10;99.90
2723;DHT22;1369;53.216;10.396;2024-02-16T13:55:30;16.10;99.90
2723;DHT22;1369;53.216;10.396;2024-02-16T13:57:55;16.10;99.90
2723;DHT22;1369;53.216;10.396;2024-02-16T14:00:21;16.00;99.90
2723;DHT22;1369;53.216;10.396;2024-02-16T14:02:47;16.00;99.90
2723;DHT22;1369;53.216;10.396;2024-02-16T14:05:13;15.90;99.90
2723;DHT22;1369;53.216;10.396;2024-02-16T14:07:38;15.90;99.90
2723;DHT22;1369;53.216;10.396;2024-02-16T14:10:05;15.80;99.90
2723;DHT22;1369;53.216;10.396;2024-02-16T14:12:30;15.80;99.90
2723;DHT22;1369;53.216;10.396;2024-02-16T14:14:56;15.70;99.90
2723;DHT22;1369;53.216;10.396;2024-02-16T14:17:21;15.70;99.90
2723;DHT22;1369;53.216;10.396;2024-02-16T14:19:47;15.60;99.90
2723;DHT22;1369;53.216;10.396;2024-02-16T14:22:13;15.60;99.90
2723;DHT22;1369;53.216;10.396;2024-02-16T14:24:38;15.50;99.90
2723;DHT22;1369;53.216;10.396;2024-02-16T14:27:04;15.50;99.90
2723;DHT22;1369;53.216;10.396;2024-02-16T14:29:30;15.40;99.90
2723;DHT22;1369;53.216;10.396;2024-02-16T14:31:55;15.40;99.90
2723;DHT22;1369;53.216;10.396;2024-02-16T14:34:22;15.30;99.90
2723;DHT22;1369;53.216;10.396;2024-02-16T14:36:47;15.30;99.90
2723;DHT22;1369;53.216;10.396;2024-02-16T14:39:13;15.20;99.90
2723;DHT22;1369;53.216;10.396;2024-02-16T14:41:41;15.20;99.90
2723;DHT22;1369;53.216;10.396;2024-02-16T14:44:06;15.10;99.90
2723;DHT22;1369;53.216;10.396;2024-02-16T14:46:32;15.10;99.90
2723;DHT22;1369;53.216;10.396;2024-02-16T14:48:58;15.00;99.90
2723;DHT22;1369;53.216;10.396;2024-02-16T14:51:23;15.00;99.90
2723;DHT22;1369;53.216;10.396;2024-02-16T14:53:49;15.00;99.90
2723;DHT22;1369;53.216;10.396;2024-02-16T14:56:15;14.90;99.90
2723;DHT22;1369;53.216;10.396;2024-02-16T14:58:44;14.90;99.90
2723;DHT22;1369;53.216;10.396;2024-02-16T15:01:11;14.90;99.90
2723;DHT22;1369;53.216;10.396;2024-02-16T15:03:37;14.80;99.90
2723;DHT22;1369;53.216;10.396;2024-02-16T15:06:02;14.80;99.90
2723;DHT22;1369;53.216;10.396;2024-02-16T15:08:28;14.80;99.90
2723;DHT22;1369;53.216;10.396;2024-02-16T15:10:54;14.70;99.90
2723;DHT22;1369;53.216;10.396;2024-02-16T15:13:20;14.70;99.90
2723;DHT22;1369;53.216;10.396;2024-02-16T15:15:45;14.70;99.90
2723;DHT22;1369;53.216;10.396;2024-02-16T15:18:11;14.70;99.90
2723;DHT22;1369;53.216;10.396;2024-02-16T15:20:37;14.70;99.90
2723;DHT22;1369;53.216;10.396;2024-02-16T15:23:03;14.60;99.90
2723;DHT22;1369;53.216;10.396;2024-02-16T15:25:29;14.60;99.90
2723;DHT22;1369;53.216;10.396;2024-02-16T15:27:54;14.60;99.90
2723;DHT22;1369;53.216;10.396;2024-02-16T15:30:21;14.60;99.90
2723;DHT22;1369;53.216;10.396;2024-02-16T15:32:46;14.50;99.90
2723;DHT22;1369;53.216;10.396;2024-02-16T15:35:12;14.50;99.90
2723;DHT22;1369;53.216;10.396;2024-02-16T15:37:38;14.50;99.90
2723;DHT22;1369;53.216;10.396;2024-02-16T15:40:04;14.40;99.90
2723;DHT22;1369;53.216;10.396;2024-02-16T15:42:30;14.40;99.90
2723;DHT22;1369;53.216;10.396;2024-02-16T15:44:57;14.40;99.90
2723;DHT22;1369;53.216;10.396;2024-02-16T15:47:23;14.30;99.90
2723;DHT22;1369;53.216;10.396;2024-02-16T15:49:48;14.30;99.90